Terminal Aerodrome Forecast
Issued by NWS Knoxville/Tri Cities, TN

Home | Current Version | Previous Version | Text Only | Print | Product List | Glossary On
Versions: 1 2 3 4 5 6 7 8 9 10 11 12 13 14 15 16 17 18 19 20 21 22 23 24 25 26 27 28 29 30 31 32 33 34 35 36 37
000
FTUS44 KMRX 032335
TAFCHA
TAF
KCHA 032335Z 0400/0424 18005KT 5SM -RA BR SCT007 OVC015
      TEMPO 0400/0404 2SM -RA BR OVC007
     FM040500 18006KT 6SM BR VCSH BKN035 OVC070
     FM041200 20008G20KT P6SM SCT030 BKN060
     FM042000 22010KT 4SM -SHRA BR OVC040=

USA.gov is the U.S. government's official web portal to all federal, state and local government web resources and services.